• Join FlightAware (Why Join?)
  • Login
  • US Flag 
04:26PM EST


 

Airport Tracker/Info


-or-


 

Live Flight TrackerFlight Track Log ✈ EJA922 ✈ 11-Jan-2014 ✈ KSNA - KASE

Flight Track Log - Related Links

Times and Time Zones

All times are in EST time to prevent confusion due to time zone crossing. See the EJA922 flight status page for this flight to view local times or setup timezone preferences in your user account.

Time Position Orientation Groundspeed Altitude Reporting Facility
EST Latitude Longitude Course Direction KTS MPH feet Rate Location/Type
04:20PM 33.6439 -117.8881 188° South 186 214 2,100  Level Los Angeles Center
04:21PM 33.5792 -117.8986 188° South 229 264 5,800 3,240 Climbing Los Angeles Center
04:22PM 33.5350 -117.9622 230° Southwest 273 314 8,800 2,640 Climbing Los Angeles Center
04:23PM 33.5508 -118.0475 283° West 263 303 11,400 2,760 Climbing Los Angeles Center
04:24PM 33.6261 -118.1208 321° Northwest 324 373 14,600 2,700 Climbing Los Angeles Center
04:25PM 33.7172 -118.0736 23° Northeast 370 426 17,100 2,100 Climbing Los Angeles Center
04:26PM 33.8064 -118.0033 33° Northeast 383 441 19,000 1,800 Climbing Los Angeles Center
04:27PM 33.9036 -117.9269 33° Northeast 416 479 20,900 1,800 Climbing Los Angeles Center
04:28PM 34.0033 -117.8469 34° Northeast 430 495 22,800 2,100 Climbing Los Angeles Center
04:29PM 34.1211 -117.7328 39° Northeast 451 519 25,300 1,980 Climbing Los Angeles Center
04:30PM 34.2072 -117.6139 49° Northeast 467 537 27,000 1,620 Climbing Los Angeles Center
04:31PM 34.2978 -117.4922 48° Northeast 480 552 28,700 1,620 Climbing Los Angeles Center
04:33PM 34.3931 -117.3600 49° Northeast 495 570 30,400 1,860 Climbing Los Angeles Center
04:34PM 34.4858 -117.2328 48° Northeast 504 580 32,600 1,380 Climbing Los Angeles Center
04:35PM 34.5800 -117.1033 49° Northeast 512 589 33,300 780 Climbing Los Angeles Center
04:36PM 34.6786 -116.9683 48° Northeast 532 612 34,300 960 Climbing Los Angeles Center
04:37PM 34.7978 -116.8014 49° Northeast 546 628 35,500 1,140 Climbing Los Angeles Center
04:38PM 34.9178 -116.6353 49° Northeast 548 631 36,900 1,200 Climbing Los Angeles Center
04:39PM 35.0225 -116.4989 47° Northeast 551 634 38,100 1,080 Climbing Los Angeles Center
04:40PM 35.1272 -116.3694 45° Northeast 545 627 39,200 1,080 Climbing Los Angeles Center
04:41PM 35.2297 -116.2414 46° Northeast 537 618 40,400 840 Climbing Los Angeles Center
04:42PM 35.3511 -116.0867 46° Northeast 529 609 41,000 240 Climbing Los Angeles Center
04:43PM 35.4547 -115.9547 46° Northeast 535 616 41,000  Level Los Angeles Center
04:44PM 35.5572 -115.8292 45° Northeast 526 605 41,000  Level Los Angeles Center
04:45PM 35.6569 -115.7033 46° Northeast 517 595 41,000  Level Los Angeles Center
04:46PM 35.7561 -115.5769 46° Northeast 516 594 41,000  Level Los Angeles Center
04:47PM 35.8731 -115.4258 46° Northeast 513 590 41,000  Level Los Angeles Center
04:48PM 35.9900 -115.2750 46° Northeast 513 590 41,000  Level Los Angeles Center
04:49PM 36.0794 -115.1442 50° Northeast 506 582 41,000  Level Los Angeles Center
04:50PM 36.1344 -114.9783 68° East 525 604 41,000  Level Los Angeles Center
04:52PM 36.1867 -114.8097 69° East 528 608 41,000  Level Los Angeles Center
04:53PM 36.2483 -114.6064 69° East 528 608 41,000  Level Los Angeles Center
04:54PM 36.2997 -114.4375 69° East 526 605 41,000  Level Los Angeles Center
04:55PM 36.3503 -114.2672 70° East 528 608 41,000  Level Los Angeles Center
04:56PM 36.4006 -114.0975 70° East 525 604 41,000  Level Los Angeles Center
04:57PM 36.4522 -113.9286 69° East 523 602 41,000  Level Los Angeles Center
04:58PM 36.5114 -113.7286 70° East 526 605 41,000  Level Los Angeles Center
04:59PM 36.5619 -113.5592 70° East 525 604 41,000  Level Los Angeles Center
05:00PM 36.6114 -113.3900 70° East 523 602 41,000  Level Los Angeles Center
05:01PM 36.6608 -113.2206 70° East 523 602 41,000  Level Los Angeles Center
05:02PM 36.7094 -113.0506 70° East 524 603 41,000  Level Los Angeles Center
05:03PM 36.7581 -112.8828 70° East 520 598 41,000  Level Los Angeles Center
05:04PM 36.8158 -112.6786 70° East 522 601 41,000  Level Los Angeles Center
05:05PM 36.8639 -112.5089 70° East 522 601 41,000  Level Los Angeles Center
05:06PM 36.9122 -112.3394 70° East 521 600 41,000  Level Los Angeles Center
05:07PM 36.9600 -112.1681 71° East 525 604 41,000  Level Los Angeles Center
05:08PM 37.0081 -111.9969 71° East 525 604 41,000  Level Los Angeles Center
05:09PM 37.0647 -111.7903 71° East 527 606 41,000  Level Los Angeles Center
05:10PM 37.1117 -111.6178 71° East 527 606 41,000  Level Los Angeles Center
05:11PM 37.1594 -111.4444 71° East 529 609 41,000  Level Los Angeles Center
05:12PM 37.2064 -111.2706 71° East 528 608 41,000  Level Los Angeles Center
05:13PM 37.2969 -111.0464 63° Northeast 520 598 41,000  Level Denver Center
05:15PM 37.3731 -110.8958 58° Northeast 513 590 41,000  Level Denver Center
05:16PM 37.4500 -110.7450 57° Northeast 513 590 41,000  Level Denver Center
05:17PM 37.5275 -110.5933 57° Northeast 515 593 41,000  Level Denver Center
05:18PM 37.6036 -110.4406 58° Northeast 508 585 41,000  Level Denver Center
05:19PM 37.6894 -110.2697 58° Northeast 513 590 41,000  Level Denver Center
05:20PM 37.7619 -110.1236 58° Northeast 512 589 41,000  Level Denver Center
05:21PM 37.8347 -109.9764 58° Northeast 513 590 41,000  Level Denver Center
05:22PM 37.9189 -109.8047 58° Northeast 514 592 41,000  Level Denver Center
05:23PM 37.9908 -109.6592 58° Northeast 510 587 41,000 -540 Level Denver Center
05:24PM 38.0556 -109.5289 58° Northeast 514 592 40,000 -1,440 Descending Denver Center
05:25PM 38.1525 -109.3256 59° Northeast 526 605 38,100 -1,500 Descending Denver Center
05:26PM 38.2278 -109.1708 58° Northeast 536 617 37,000 -600 Descending Denver Center
05:27PM 38.3011 -109.0158 59° Northeast 535 616 37,000  Level Denver Center
05:28PM 38.3881 -108.8361 58° Northeast 536 617 37,000 -300 Level Denver Center
05:29PM 38.4617 -108.6836 58° Northeast 529 609 36,500 -1,380 Descending Denver Center
05:30PM 38.5458 -108.5036 59° Northeast 529 609 34,300 -2,040 Descending Denver Center
05:31PM 38.6169 -108.3544 59° Northeast 518 596 32,400 -1,860 Descending Denver Center
05:32PM 38.6856 -108.2061 59° Northeast 510 587 30,500 -2,400 Descending Denver Center
05:33PM 38.7306 -108.0103 74° East 512 589 27,600 -2,400 Descending Denver Center
05:34PM 38.7667 -107.8431 74° East 510 587 25,700 -2,100 Descending Denver Center
05:35PM 38.8075 -107.6569 74° East 496 571 23,400 -2,100 Descending Denver Center
05:36PM 38.8767 -107.5350 54° Northeast 462 532 21,500 -1,680 Descending Denver Center
05:37PM 38.9706 -107.4414 38° Northeast 447 514 20,000 -780 Descending Denver Center
05:38PM 39.0769 -107.3325 38° Northeast 440 506 20,000  Level Denver Center
05:39PM 39.1636 -107.2347 41° Northeast 436 502 20,000 -420 Level Denver Center
05:40PM 39.2417 -107.1644 35° Northeast 354 407 19,200 -960 Descending Denver Center
05:41PM 39.3153 -107.1261 22° Northeast 289 333 18,100 -1,320 Descending Denver Center
05:42PM 39.3894 -107.0903 20° North 282 325 16,500 -1,740 Descending Denver Center
05:43PM 39.4353 -107.0061 55° Northeast 298 343 14,600 -1,620 Descending Denver Center
05:44PM 39.3975 -106.9431 128° Southeast 264 304 13,200 -1,620 Descending Denver Center
05:45PM 39.3422 -106.9108 156° South 198 228 11,400 -1,920 Descending Denver Center
05:46PM 39.2950 -106.9014 171° South 178 205 9,300 -1,380 Descending Denver Center
05:47PM 39.2586 -106.8822 158° South 172 198 8,600 -720 Descending Denver Center